createdAt,value
2019-05-14T03:35:57.265Z,100696.41
2019-05-14T03:36:32.389Z,100699.70
2019-05-14T03:37:04.319Z,100699.89
2019-05-14T03:37:40.430Z,100696.59
2019-05-14T03:38:19.515Z,100701.80
2019-05-14T03:38:54.299Z,100701.87
2019-05-14T03:39:30.305Z,100704.36
2019-05-14T03:40:09.300Z,100703.28
2019-05-14T03:40:44.531Z,100703.34
2019-05-14T03:41:20.471Z,100701.73
2019-05-14T03:41:59.098Z,100706.20
2019-05-14T05:22:50.506Z,100669.08
2019-05-14T05:23:28.213Z,100667.41
2019-05-14T05:24:04.376Z,100665.62
2019-05-14T05:24:40.277Z,100662.22
2019-05-14T05:25:18.741Z,100666.08
2019-05-14T05:25:53.938Z,100665.92
2019-05-14T05:26:29.869Z,100663.34
2019-05-14T05:27:05.744Z,100651.77
2019-05-14T05:27:41.673Z,100651.77
2019-05-14T05:28:19.105Z,100657.97
2019-05-14T05:29:05.613Z,100660.69
2019-05-14T05:29:32.781Z,100653.49
2019-05-14T05:30:09.279Z,100667.54
2019-05-14T05:30:49.543Z,100654.94
2019-05-14T05:31:25.385Z,100663.80
2019-05-14T05:32:01.293Z,100660.34
2019-05-14T05:32:38.891Z,100658.48
2019-05-14T05:33:14.885Z,100660.17
2019-05-14T05:33:52.163Z,100660.17
2019-05-14T05:34:28.397Z,100658.08
2019-05-14T05:35:04.462Z,100651.63
2019-05-14T05:35:42.392Z,100651.63
2019-05-14T05:36:20.889Z,100653.57
2019-05-14T05:36:59.020Z,100652.22
2019-05-14T05:37:34.450Z,100652.22
2019-05-14T05:38:10.421Z,100650.02
2019-05-14T05:38:48.748Z,100647.07
2019-05-14T05:39:24.346Z,100647.07
2019-05-14T05:40:00.281Z,100640.11
2019-05-14T05:40:39.185Z,100640.11
2019-05-14T05:41:14.664Z,100638.89
2019-05-14T05:41:50.591Z,100630.84
2019-05-14T05:42:29.269Z,100626.55
2019-05-14T05:43:04.329Z,100626.55
2019-05-14T05:43:40.377Z,100628.98
2019-05-14T05:44:18.630Z,100628.98
2019-05-14T05:44:54.045Z,100625.19
2019-05-14T05:45:29.953Z,100618.78
2019-05-14T05:46:05.849Z,100623.84
2019-05-14T05:46:43.506Z,100614.58
2019-05-14T05:47:19.424Z,100607.89
2019-05-14T05:47:59.071Z,100609.53
2019-05-14T05:48:33.088Z,100609.53
2019-05-14T05:49:09.077Z,100610.23
2019-05-14T05:49:45.163Z,100609.94
2019-05-14T05:50:21.133Z,100609.94
2019-05-14T05:50:59.077Z,100609.34
2019-05-14T05:51:34.642Z,100609.34
2019-05-14T05:52:10.505Z,100604.48
2019-05-14T05:52:46.362Z,100604.95
2019-05-14T05:53:22.265Z,100610.26
2019-05-14T05:53:58.791Z,100609.41
2019-05-14T05:54:34.862Z,100609.41
2019-05-14T05:55:13.115Z,100599.50
2019-05-14T05:55:49.284Z,100599.50
2019-05-14T05:56:25.143Z,100597.53
2019-05-14T05:57:00.969Z,100596.19
2019-05-14T05:57:39.276Z,100595.38
2019-05-14T05:58:14.562Z,100595.38
2019-05-14T05:58:50.474Z,100601.59
2019-05-14T05:59:29.012Z,100575.98
2019-05-14T06:00:04.387Z,100590.23
2019-05-14T06:00:43.798Z,100577.27
2019-05-14T06:01:19.957Z,100577.27
2019-05-14T06:01:58.444Z,100570.58
2019-05-14T06:02:36.351Z,100563.33
2019-05-14T06:03:12.229Z,100563.33
2019-05-14T06:03:49.567Z,100563.72
2019-05-14T06:04:25.605Z,100557.36
2019-05-14T06:05:01.606Z,100555.76
2019-05-14T06:05:38.924Z,100557.22
2019-05-14T06:06:16.031Z,100557.22
2019-05-14T06:06:52.097Z,100554.91
2019-05-14T06:07:28.833Z,100554.91
2019-05-14T06:08:05.110Z,100556.55
2019-05-14T06:08:40.993Z,100549.59
2019-05-14T06:09:18.254Z,100552.05
2019-05-14T06:09:54.448Z,100544.56
2019-05-14T06:10:30.489Z,100546.13
2019-05-14T06:11:08.643Z,100546.13
2019-05-14T06:11:44.569Z,100545.61
2019-05-14T06:12:20.497Z,100545.61
2019-05-14T06:12:58.538Z,100539.16
2019-05-14T06:13:35.605Z,100549.11
2019-05-14T06:14:11.657Z,100549.11
2019-05-14T06:14:48.827Z,100548.02
2019-05-14T06:15:25.077Z,100548.02
2019-05-14T06:16:01.206Z,100548.31
2019-05-14T06:16:38.575Z,100548.31
2019-05-14T06:17:14.748Z,100548.30
2019-05-14T06:17:50.659Z,100550.16
2019-05-14T06:18:28.533Z,100543.22
2019-05-14T06:19:04.628Z,100545.05
2019-05-14T06:19:40.804Z,100545.05
2019-05-14T06:20:18.932Z,100540.10
2019-05-14T06:20:54.975Z,100537.70
2019-05-14T06:21:31.121Z,100542.71
2019-05-14T06:22:09.593Z,100542.71
2019-05-14T06:22:45.018Z,100537.52
2019-05-14T06:23:20.996Z,100538.27
2019-05-14T06:23:58.259Z,100538.27
2019-05-14T06:24:34.341Z,100540.06
2019-05-14T06:25:12.490Z,100540.06
2019-05-14T06:25:49.298Z,100531.11
2019-05-14T06:26:25.417Z,100531.11
2019-05-14T06:27:01.346Z,100540.62
2019-05-14T06:27:38.044Z,100537.62
2019-05-14T06:28:14.093Z,100537.62
2019-05-14T06:28:50.662Z,100542.66
2019-05-14T06:29:28.957Z,100542.66
2019-05-14T06:30:04.838Z,100543.10
2019-05-14T06:30:41.552Z,100543.10
2019-05-14T06:31:19.190Z,100534.75
2019-05-14T06:31:55.761Z,100543.48
2019-05-14T06:32:31.644Z,100541.28
2019-05-14T06:33:09.247Z,100543.38
2019-05-14T06:33:45.456Z,100543.38
2019-05-14T06:34:21.595Z,100538.75
2019-05-14T06:34:59.377Z,100538.75
2019-05-14T06:35:35.699Z,100537.05
2019-05-14T06:36:14.489Z,100537.05
2019-05-14T06:36:49.450Z,100536.44
2019-05-14T06:37:25.655Z,100536.44
2019-05-14T06:38:01.711Z,100535.59
2019-05-14T06:38:38.905Z,100536.03
2019-05-14T06:39:15.127Z,100536.03
2019-05-14T06:39:51.046Z,100531.13
2019-05-14T06:40:28.750Z,100527.81
2019-05-14T06:41:04.864Z,100513.61
2019-05-14T06:41:42.969Z,100530.44
2019-05-14T06:42:19.436Z,100521.28
2019-05-14T06:42:55.371Z,100521.16
2019-05-14T06:43:39.302Z,100525.22
2019-05-14T06:44:14.979Z,100523.02
2019-05-14T06:44:51.039Z,100518.96
2019-05-14T06:45:29.254Z,100508.20
2019-05-14T06:46:05.113Z,100522.41
2019-05-14T06:46:44.623Z,100515.40
2019-05-14T06:47:20.644Z,100521.61
2019-05-14T06:47:56.570Z,100515.64
2019-05-14T06:48:34.821Z,100512.94
2019-05-14T06:49:10.899Z,100512.70
2019-05-14T06:49:48.823Z,100509.19
2019-05-14T06:50:28.339Z,100511.89
2019-05-14T06:51:03.627Z,100513.49
2019-05-14T06:51:39.748Z,100512.14
2019-05-14T06:52:15.860Z,100505.94
2019-05-14T06:52:51.853Z,100505.94
2019-05-14T06:53:29.051Z,100510.12
2019-05-14T06:54:05.321Z,100510.12
2019-05-14T06:54:41.406Z,100506.56
2019-05-14T06:55:18.042Z,100506.56
2019-05-14T06:55:54.365Z,100504.96
2019-05-14T06:56:30.360Z,100504.16
2019-05-14T06:57:08.656Z,100506.31
2019-05-14T06:57:43.934Z,100503.86
2019-05-14T06:58:20.633Z,100502.75
2019-05-14T06:58:58.409Z,100501.95
2019-05-14T06:59:38.119Z,100502.75
2019-05-14T07:00:14.198Z,100496.55
2019-05-14T07:00:50.224Z,100496.55
2019-05-14T07:01:26.127Z,100491.94
2019-05-14T07:02:02.039Z,100498.39
2019-05-14T07:02:43.278Z,100492.95
2019-05-14T07:03:17.856Z,100487.23
2019-05-14T07:03:53.317Z,100487.21
2019-05-14T07:04:29.399Z,100487.45
2019-05-14T07:05:05.512Z,100480.14
2019-05-14T07:05:41.528Z,100490.59
2019-05-14T07:06:18.575Z,100489.43
2019-05-14T07:06:54.956Z,100488.56
2019-05-14T07:07:33.613Z,100483.65
2019-05-14T07:08:09.626Z,100483.03
2019-05-14T07:08:45.485Z,100482.76
2019-05-14T07:09:21.668Z,100484.05
2019-05-14T07:09:58.236Z,100486.14
2019-05-14T07:10:34.304Z,100482.02
2019-05-14T07:11:10.198Z,100476.30
2019-05-14T07:11:50.720Z,100481.09
2019-05-14T07:12:29.576Z,100480.48
2019-05-14T07:13:08.416Z,100479.37
2019-05-14T07:13:43.305Z,100478.75
2019-05-14T07:14:19.255Z,100472.99
2019-05-14T07:14:55.357Z,100470.78
2019-05-14T07:15:31.195Z,100468.80
2019-05-14T07:16:08.957Z,100464.98
2019-05-14T07:16:48.319Z,100461.42
2019-05-14T07:17:23.649Z,100464.30
2019-05-14T07:17:59.596Z,100465.06
2019-05-14T07:18:46.435Z,100458.78
2019-05-14T07:19:16.799Z,100465.24
2019-05-14T13:51:08.732Z,100687.55
2019-05-14T13:51:44.777Z,100687.55
2019-05-14T13:52:30.389Z,100703.97
2019-05-14T13:53:12.310Z,100703.97
2019-05-14T13:53:45.651Z,100698.64
2019-05-14T13:54:22.129Z,100710.21
2019-05-14T13:54:59.738Z,100707.30
2019-05-14T13:55:44.200Z,100707.30
2019-05-14T13:56:14.814Z,100716.42
2019-05-14T13:57:05.367Z,100716.42
2019-05-14T13:57:42.017Z,100723.97
2019-05-14T13:59:09.554Z,100720.51
2019-05-14T13:59:45.561Z,100727.22
2019-05-14T14:00:21.798Z,100727.22
2019-05-14T14:00:59.243Z,100730.72
2019-05-14T14:01:44.365Z,100730.72
2019-05-14T14:02:20.287Z,100732.07
2019-05-14T14:02:58.808Z,100736.92
2019-05-14T14:03:46.920Z,100733.67
2019-05-14T14:04:21.224Z,100742.03
2019-05-14T14:04:59.009Z,100740.69
2019-05-14T14:05:35.041Z,100741.48
2019-05-14T14:06:11.137Z,100741.48
2019-05-14T14:06:55.251Z,100741.19
2019-05-14T14:07:33.925Z,100733.75
2019-05-14T14:08:09.826Z,100733.75
2019-05-14T14:08:48.659Z,100740.94
2019-05-14T14:09:23.460Z,100745.79
2019-05-14T14:10:31.424Z,100744.73
2019-05-14T14:11:12.294Z,100741.58
2019-05-14T14:11:44.166Z,100741.58
2019-05-14T14:12:20.026Z,100743.97
2019-05-14T14:12:59.634Z,100738.62
2019-05-14T14:13:35.065Z,100740.47
2019-05-14T14:14:11.421Z,100732.96
2019-05-14T14:14:49.319Z,100738.31
2019-05-14T14:15:26.089Z,100738.31
2019-05-14T14:16:02.427Z,100737.47
2019-05-14T14:16:39.569Z,100732.41
2019-05-14T14:17:18.524Z,100732.41
2019-05-14T14:17:55.098Z,100737.47
2019-05-14T14:18:31.741Z,100739.08
2019-05-14T14:19:08.806Z,100739.08
2019-05-14T14:19:45.679Z,100746.13
2019-05-14T14:20:21.578Z,100739.38
2019-05-14T14:20:57.451Z,100737.27
2019-05-14T14:21:33.394Z,100750.72
2019-05-14T14:22:10.246Z,100750.72
2019-05-14T14:22:49.066Z,100746.42
2019-05-14T14:23:28.276Z,100750.22
2019-05-14T14:24:03.641Z,100750.27
2019-05-14T14:24:40.352Z,100750.27
2019-05-14T14:25:17.730Z,100749.96
2019-05-14T14:25:56.156Z,100751.31
2019-05-14T14:26:39.500Z,100756.42
2019-05-14T14:27:19.356Z,100750.27
2019-05-14T14:27:55.363Z,100744.02
2019-05-14T14:28:31.922Z,100744.02
2019-05-14T14:29:09.184Z,100743.76
2019-05-14T14:29:45.804Z,100742.92
2019-05-14T14:30:22.453Z,100742.92
2019-05-14T14:30:58.781Z,100748.61
2019-05-14T14:31:35.494Z,100738.87
2019-05-14T14:32:12.175Z,100738.87
2019-05-14T14:32:49.505Z,100738.62
2019-05-14T14:33:28.732Z,100738.62
2019-05-14T14:34:04.613Z,100731.14
2019-05-14T14:34:41.526Z,100733.22
2019-05-14T14:35:22.705Z,100733.47
2019-05-14T14:35:55.892Z,100734.02
2019-05-14T14:36:31.788Z,100738.87
2019-05-14T14:37:08.818Z,100738.87
2019-05-14T14:37:45.019Z,100739.70
2019-05-14T14:38:20.913Z,100738.36
2019-05-14T14:38:58.778Z,100737.05
2019-05-14T14:39:35.430Z,100741.86
2019-05-14T14:40:11.954Z,100741.86
2019-05-14T14:40:48.765Z,100740.77
2019-05-14T14:41:25.066Z,100739.97
2019-05-14T14:42:01.734Z,100734.91
2019-05-14T14:42:39.994Z,100741.32
2019-05-14T14:43:18.579Z,100741.32
2019-05-14T14:43:55.406Z,100736.25
2019-05-14T14:44:32.199Z,100743.21
2019-05-14T14:45:09.556Z,100740.22
2019-05-14T14:45:49.448Z,100742.92
2019-05-14T14:46:24.825Z,100742.92
2019-05-14T14:47:01.279Z,100736.17
2019-05-14T14:47:39.408Z,100736.17
2019-05-14T14:48:15.743Z,100731.86
2019-05-14T14:48:52.326Z,100726.55
2019-05-14T14:49:28.894Z,100726.55
2019-05-14T14:50:05.392Z,100733.22
2019-05-14T14:50:42.207Z,100732.96
2019-05-14T14:51:19.283Z,100723.34
2019-05-14T14:51:58.856Z,100723.34
2019-05-14T14:52:34.953Z,100735.41
2019-05-14T14:53:11.562Z,100735.41
2019-05-14T14:53:59.433Z,100736.25
2019-05-14T14:54:28.676Z,100736.76
2019-05-14T14:55:04.467Z,100735.95
2019-05-14T14:55:41.141Z,100739.72
2019-05-14T14:56:18.976Z,100737.09
2019-05-14T14:57:35.108Z,100741.91
2019-05-14T14:58:11.848Z,100736.84
2019-05-14T14:58:49.638Z,100736.84
2019-05-14T14:59:25.644Z,100742.16
2019-05-14T15:00:01.563Z,100740.01
2019-05-14T15:00:38.085Z,100741.98
2019-05-14T15:01:14.078Z,100739.83
2019-05-14T15:01:50.409Z,100748.15
2019-05-14T15:02:28.765Z,100747.38
2019-05-14T15:03:04.222Z,100747.38
2019-05-14T15:03:40.729Z,100757.85
2019-05-14T15:04:19.427Z,100753.59
2019-05-14T15:04:54.347Z,100760.59
2019-05-14T15:05:30.225Z,100753.62
2019-05-14T15:06:09.297Z,100761.44
2019-05-14T15:06:44.156Z,100756.83
2019-05-14T15:07:20.057Z,100756.36
2019-05-14T15:07:56.053Z,100762.23
2019-05-14T15:08:32.024Z,100762.23
2019-05-14T15:09:09.681Z,100761.17
2019-05-14T15:09:48.550Z,100761.17
2019-05-14T15:10:23.454Z,100762.27
2019-05-14T15:11:03.116Z,100764.46
2019-05-14T15:11:39.757Z,100761.28
2019-05-14T15:12:15.864Z,100758.59
2019-05-14T15:12:51.938Z,100773.88
2019-05-14T15:13:27.937Z,100773.88
2019-05-14T15:14:03.936Z,100773.63
2019-05-14T15:14:39.897Z,100769.09
2019-05-14T15:15:18.491Z,100769.09
2019-05-14T15:15:53.732Z,100764.50
2019-05-14T15:16:30.119Z,100763.14
2019-05-14T15:17:05.976Z,100763.14
2019-05-14T15:17:41.862Z,100764.50
2019-05-14T15:18:18.753Z,100766.88
2019-05-14T15:18:54.876Z,100771.72
2019-05-14T15:19:32.346Z,100771.72
2019-05-14T15:20:10.229Z,100772.30
2019-05-14T15:20:48.754Z,100772.30
2019-05-14T15:21:24.032Z,100770.70
2019-05-14T15:21:59.895Z,100758.87
2019-05-14T15:22:35.971Z,100773.69
2019-05-14T15:23:11.931Z,100770.70
2019-05-14T15:24:05.014Z,100772.59
2019-05-14T15:24:25.592Z,100770.99
2019-05-14T15:25:04.373Z,100775.30
2019-05-14T15:25:40.290Z,100772.34
2019-05-14T15:26:19.126Z,100770.99
2019-05-14T15:26:54.035Z,100779.34
2019-05-14T15:27:30.031Z,100779.34
2019-05-14T15:28:09.424Z,100786.36
2019-05-14T15:28:44.802Z,100786.36
2019-05-14T15:29:20.705Z,100770.19
2019-05-14T15:29:59.154Z,100770.48
2019-05-14T15:30:35.974Z,100783.62
2019-05-14T15:31:12.032Z,100783.62
2019-05-14T15:31:48.550Z,100782.27
2019-05-14T15:32:24.638Z,100776.36
2019-05-14T15:33:00.827Z,100787.70
2019-05-14T15:33:37.325Z,100786.68
2019-05-14T15:34:13.401Z,100783.66
2019-05-14T15:34:50.529Z,100787.16
2019-05-14T15:35:28.542Z,100787.16
2019-05-14T15:36:04.457Z,100791.47
2019-05-14T15:36:41.754Z,100781.28
2019-05-14T15:37:19.073Z,100784.23
2019-05-14T15:37:55.199Z,100779.09
2019-05-14T15:38:31.146Z,100796.31
2019-05-14T15:39:09.672Z,100796.31
2019-05-14T15:39:45.841Z,100791.72
2019-05-14T15:40:22.506Z,100797.92
2019-05-14T15:40:59.601Z,100781.80
2019-05-14T15:41:35.695Z,100781.80
2019-05-14T15:42:13.964Z,100790.91
2019-05-14T15:42:49.902Z,100790.91
2019-05-14T15:43:28.546Z,100789.86
2019-05-14T15:44:03.821Z,100776.94
2019-05-14T15:44:48.752Z,100791.75
2019-05-14T15:45:18.068Z,100787.19
2019-05-14T15:45:54.010Z,100789.89
2019-05-14T15:46:29.924Z,100789.89
2019-05-14T15:47:11.226Z,100792.34
2019-05-14T15:47:48.298Z,100781.28
2019-05-14T15:48:23.629Z,100781.28
2019-05-14T15:48:59.662Z,100791.28
2019-05-14T15:49:35.552Z,100787.48
2019-05-14T15:50:11.606Z,100784.78
2019-05-14T15:50:50.125Z,100783.44
2019-05-14T15:51:28.496Z,100783.44
2019-05-14T15:52:04.042Z,100777.49
2019-05-14T15:52:40.038Z,100780.20
2019-05-14T15:53:16.000Z,100783.98
2019-05-14T15:54:09.182Z,100786.69
2019-05-14T15:54:42.344Z,100782.89
2019-05-14T15:55:09.954Z,100782.89
2019-05-14T15:55:46.413Z,100780.20
2019-05-14T15:56:22.416Z,100779.39
2019-05-14T15:57:01.326Z,100779.39
2019-05-14T15:57:39.631Z,100783.44
2019-05-14T15:58:15.130Z,100785.34
2019-05-14T15:58:52.638Z,100776.77
2019-05-14T15:59:33.093Z,100786.95
2019-05-14T16:00:09.796Z,100766.84
2019-05-14T16:00:46.349Z,100775.63
2019-05-14T16:01:28.526Z,100778.59
2019-05-14T16:02:04.742Z,100777.82
2019-05-14T16:02:51.509Z,100778.59
2019-05-14T16:03:28.022Z,100780.74
2019-05-14T16:04:04.624Z,100775.89
2019-05-14T16:04:41.000Z,100779.94
2019-05-14T16:05:19.060Z,100782.64
2019-05-14T16:05:55.617Z,100782.64
2019-05-14T16:06:38.621Z,100780.20
2019-05-14T16:07:19.572Z,100776.25
2019-05-14T16:08:08.744Z,100783.22
2019-05-14T16:08:48.881Z,100779.23
2019-05-14T16:09:28.959Z,100779.23
2019-05-14T16:10:08.555Z,100788.36
2019-05-14T16:10:51.346Z,100788.36
2019-05-14T16:11:29.843Z,100780.91
2019-05-14T16:12:10.583Z,100790.80
2019-05-14T16:12:55.836Z,100786.83
2019-05-14T16:13:35.842Z,100795.95
2019-05-14T16:14:12.017Z,100793.80
2019-05-14T16:14:53.094Z,100783.87
2019-05-14T16:15:31.992Z,100783.61
2019-05-14T16:16:39.114Z,100783.61
2019-05-14T16:17:25.042Z,100782.52
2019-05-14T16:18:08.691Z,100788.14
2019-05-14T16:18:39.230Z,100784.64
2019-05-14T16:19:21.155Z,100785.44
2019-05-14T16:20:02.367Z,100776.83
2019-05-14T16:20:49.946Z,100772.23
2019-05-14T16:21:29.233Z,100772.23
2019-05-14T16:22:05.535Z,100771.98
2019-05-14T16:22:42.245Z,100771.98
2019-05-14T16:23:18.840Z,100771.98
2019-05-14T16:23:54.769Z,100764.72
2019-05-14T16:24:30.673Z,100767.93
2019-05-14T16:25:08.911Z,100766.58
2019-05-14T16:25:50.764Z,100766.58
2019-05-14T16:26:35.613Z,100760.70
2019-05-14T16:27:12.149Z,100773.33
2019-05-14T16:27:49.519Z,100765.23
2019-05-14T16:28:28.747Z,100765.55
2019-05-14T16:29:04.793Z,100765.55
2019-05-14T16:29:45.782Z,100775.73
2019-05-14T16:30:22.334Z,100775.73
2019-05-14T16:30:59.184Z,100787.34
2019-05-14T16:31:43.188Z,100783.03
2019-05-14T16:32:16.178Z,100776.34
2019-05-14T16:32:55.201Z,100784.96
2019-05-14T16:33:31.253Z,100787.91
2019-05-14T16:34:09.805Z,100798.39
2019-05-14T16:34:48.910Z,100797.84
2019-05-14T16:35:25.783Z,100797.84
2019-05-14T16:36:01.646Z,100789.48
2019-05-14T16:36:41.186Z,100794.05
2019-05-14T16:37:15.311Z,100783.03
2019-05-14T16:37:51.271Z,100783.03
2019-05-14T16:38:28.572Z,100786.76
2019-05-14T16:39:06.229Z,100786.76
2019-05-14T16:39:42.262Z,100785.15
2019-05-14T16:40:19.212Z,100785.15
2019-05-14T16:40:55.619Z,100769.53
2019-05-14T16:41:31.555Z,100769.53
2019-05-14T16:42:07.420Z,100765.55
2019-05-14T16:42:43.460Z,100763.37
2019-05-14T16:43:20.394Z,100756.14
2019-05-14T16:43:58.719Z,100760.41
2019-05-14T16:44:34.145Z,100756.11
2019-05-14T16:45:10.439Z,100758.81
2019-05-14T16:45:48.964Z,100763.11
2019-05-14T16:46:24.124Z,100766.06
2019-05-14T16:47:00.059Z,100766.06
2019-05-14T16:47:36.005Z,100770.92
2019-05-14T16:48:12.156Z,100770.92
2019-05-14T16:48:48.888Z,100767.48
2019-05-14T16:49:25.100Z,100786.02
2019-05-14T16:50:01.113Z,100775.84
2019-05-14T16:50:37.102Z,100775.84
2019-05-14T16:51:12.999Z,100790.06
2019-05-14T16:51:49.719Z,100784.70
2019-05-14T16:52:25.698Z,100784.70
2019-05-14T16:53:01.614Z,100788.98
2019-05-14T16:53:38.051Z,100788.98
2019-05-14T16:54:14.889Z,100790.88
2019-05-14T16:54:50.727Z,100793.83
2019-05-14T16:55:30.104Z,100789.78
2019-05-14T16:56:04.296Z,100792.77
2019-05-14T16:56:41.391Z,100792.77
2019-05-14T16:57:18.584Z,100792.77
2019-05-14T16:57:54.824Z,100792.77
2019-05-14T16:58:30.717Z,100787.41
2019-05-14T16:59:08.946Z,100782.59
2019-05-14T16:59:44.374Z,100789.27
2019-05-14T17:00:20.290Z,100787.62
2019-05-14T17:00:58.703Z,100793.83
2019-05-14T17:01:34.039Z,100793.83
2019-05-14T17:02:10.536Z,100793.83
2019-05-14T17:02:48.298Z,100791.12
2019-05-14T17:03:24.036Z,100790.03
2019-05-14T17:04:00.139Z,100790.03
2019-05-14T17:04:38.567Z,100786.79
2019-05-14T17:05:13.741Z,100794.08
2019-05-14T17:05:49.704Z,100785.22
2019-05-14T17:06:25.595Z,100785.22
2019-05-14T17:07:01.468Z,100793.25
2019-05-14T17:07:38.537Z,100785.47
2019-05-14T17:08:15.018Z,100785.47
2019-05-14T17:08:51.004Z,100790.55
2019-05-14T17:09:28.168Z,100774.67
2019-05-14T17:10:04.792Z,100780.81
2019-05-14T17:10:40.686Z,100777.12
2019-05-14T17:11:18.233Z,100777.12
2019-05-14T17:11:54.382Z,100785.15
2019-05-14T17:12:47.946Z,100781.10
2019-05-14T17:13:09.038Z,100781.10
2019-05-14T17:13:45.263Z,100777.89
2019-05-14T17:14:21.092Z,100781.36
2019-05-14T17:15:01.514Z,100778.91
2019-05-14T17:15:39.389Z,100780.27
2019-05-14T17:16:19.286Z,100782.97
2019-05-14T17:16:59.423Z,100780.84
2019-05-14T17:17:35.845Z,100780.84
2019-05-14T17:18:11.910Z,100769.34
2019-05-14T17:18:48.668Z,100765.30
2019-05-14T17:19:24.837Z,100778.73
2019-05-14T17:20:00.724Z,100772.78
2019-05-14T17:20:39.303Z,100766.65
2019-05-14T17:21:15.141Z,100774.13
2019-05-14T17:21:51.045Z,100768.77
2019-05-14T17:22:32.653Z,100771.20
2019-05-14T17:23:04.762Z,100784.64
2019-05-14T17:23:42.057Z,100776.54
2019-05-14T17:24:20.007Z,100788.14
2019-05-14T17:24:58.483Z,100784.96
2019-05-14T17:25:33.367Z,100780.66
2019-05-14T17:26:10.585Z,100780.66
2019-05-14T17:26:48.730Z,100781.94
2019-05-14T17:27:25.066Z,100784.70
2019-05-14T17:28:01.008Z,100784.70
2019-05-14T17:28:40.144Z,100785.22
2019-05-14T17:29:14.679Z,100788.43
2019-05-14T17:29:50.601Z,100779.30
2019-05-14T17:30:28.920Z,100779.30
2019-05-14T17:31:04.171Z,100771.82
2019-05-14T17:31:42.492Z,100775.84
2019-05-14T17:32:18.837Z,100776.64
2019-05-14T17:32:55.033Z,100771.28
2019-05-14T17:33:31.106Z,100779.88
2019-05-14T17:34:08.742Z,100775.58
2019-05-14T17:34:44.770Z,100775.30
2019-05-14T17:35:20.781Z,100781.45
2019-05-14T17:35:58.648Z,100781.45
2019-05-14T17:36:34.403Z,100772.30
2019-05-14T17:37:10.328Z,100779.56
2019-05-14T17:37:48.374Z,100779.56
2019-05-14T17:38:24.216Z,100781.42
2019-05-14T17:39:00.253Z,100781.42
2019-05-14T17:39:38.521Z,100775.77
2019-05-14T17:40:13.927Z,100766.65
2019-05-14T17:40:50.793Z,100766.65
2019-05-14T17:41:26.859Z,100771.47
2019-05-14T17:42:02.811Z,100760.19
2019-05-14T17:42:39.452Z,100771.72
2019-05-14T17:43:15.775Z,100771.72
2019-05-14T17:43:53.236Z,100756.66
2019-05-14T17:44:29.279Z,100761.73
2019-05-14T17:45:05.387Z,100758.81
2019-05-14T17:45:41.460Z,100758.81
2019-05-14T17:46:18.359Z,100757.71
2019-05-14T17:46:55.037Z,100751.58
2019-05-14T17:47:30.933Z,100755.63
2019-05-14T17:48:07.855Z,100755.63
2019-05-14T17:48:43.866Z,100758.91
2019-05-14T17:49:20.195Z,100758.36
2019-05-14T17:49:56.094Z,100752.78
2019-05-14T17:50:32.150Z,100756.86
2019-05-14T17:51:09.405Z,100756.86
2019-05-14T17:51:45.780Z,100761.67
2019-05-14T17:52:22.160Z,100757.37
2019-05-14T17:53:00.163Z,100761.42
2019-05-14T17:53:38.362Z,100760.91
2019-05-14T17:54:13.828Z,100756.59
2019-05-14T17:54:49.769Z,100756.59
2019-05-14T17:55:29.458Z,100752.04
2019-05-14T17:56:04.027Z,100747.19
2019-05-14T17:56:39.955Z,100754.45
2019-05-14T17:57:15.946Z,100734.31
2019-05-14T17:57:58.104Z,100734.31
2019-05-14T17:58:29.619Z,100746.13
2019-05-14T17:59:05.467Z,100737.27
2019-05-14T17:59:41.404Z,100735.63
2019-05-14T18:00:18.381Z,100733.47
2019-05-14T18:00:54.247Z,100735.11
2019-05-14T18:01:30.145Z,100734.31
2019-05-14T18:02:08.555Z,100725.67
2019-05-14T18:02:43.813Z,100725.67
2019-05-14T18:03:19.760Z,100725.16
2019-05-14T18:03:58.249Z,100725.45
2019-05-14T18:04:33.409Z,100722.01
2019-05-14T18:05:09.862Z,100722.01
2019-05-14T18:05:46.768Z,100722.55
2019-05-14T18:06:22.756Z,100718.28
2019-05-14T18:06:59.228Z,100718.28
2019-05-14T18:07:36.832Z,100719.66
2019-05-14T18:08:12.732Z,100714.05
2019-05-14T18:08:49.490Z,100710.25
2019-05-14T18:09:25.550Z,100711.09
2019-05-14T18:10:01.444Z,100708.42
2019-05-14T18:10:39.197Z,100702.52
2019-05-14T18:11:15.091Z,100697.66
2019-05-14T18:11:51.002Z,100694.71
2019-05-14T18:12:30.065Z,100691.75
2019-05-14T18:13:04.528Z,100690.41
2019-05-14T18:13:40.437Z,100686.10
2019-05-14T18:14:18.951Z,100687.45
2019-05-14T18:14:53.966Z,100686.91
2019-05-14T18:15:29.831Z,100683.66
2019-05-14T18:16:05.684Z,100686.36
2019-05-14T18:16:41.551Z,100687.71
2019-05-14T18:17:18.874Z,100689.06
2019-05-14T18:17:54.957Z,100689.86
2019-05-14T18:18:30.845Z,100687.71
2019-05-14T18:19:08.697Z,100689.60
2019-05-14T18:19:44.541Z,100682.31
2019-05-14T18:20:20.486Z,100679.08
2019-05-14T18:20:58.643Z,100685.53
2019-05-14T18:21:34.457Z,100674.74
2019-05-14T18:22:10.405Z,100677.44
2019-05-14T18:22:48.549Z,100676.34
2019-05-14T18:23:24.052Z,100679.30
2019-05-14T18:23:59.977Z,100675.26
2019-05-14T18:24:35.890Z,100674.97
2019-05-14T18:25:11.996Z,100675.77
2019-05-14T18:26:03.475Z,100677.37
2019-05-14T18:26:25.562Z,100676.03
2019-05-14T18:27:01.489Z,100673.59
2019-05-14T18:27:39.282Z,100677.89
2019-05-14T18:28:15.146Z,100674.94
2019-05-14T18:28:50.997Z,100675.48
2019-05-14T18:29:29.311Z,100678.98
2019-05-14T18:30:04.771Z,100674.39
2019-05-14T18:30:40.838Z,100677.09
2019-05-14T18:31:20.154Z,100673.84
2019-05-14T18:31:55.332Z,100673.04
2019-05-14T18:32:31.506Z,100666.84
2019-05-14T18:33:07.964Z,100666.30
2019-05-14T18:33:44.049Z,100663.86
2019-05-14T18:34:19.959Z,100665.75
2019-05-14T18:34:58.059Z,100664.66
2019-05-14T18:35:33.745Z,100660.07
2019-05-14T18:36:09.653Z,100655.77
2019-05-14T18:36:45.553Z,100662.77
2019-05-14T18:37:21.421Z,100665.47
2019-05-14T18:37:57.316Z,100661.42
2019-05-14T18:38:33.261Z,100663.54
2019-05-14T18:39:09.490Z,100663.54
2019-05-14T18:39:48.152Z,100666.48
2019-05-14T18:40:23.366Z,100671.34
2019-05-14T18:40:59.334Z,100669.98
2019-05-14T18:41:35.457Z,100670.54
2019-05-14T18:42:11.290Z,100671.88
2019-05-14T18:42:48.079Z,100679.43
2019-05-14T18:43:25.099Z,100672.14
2019-05-14T18:44:01.669Z,100676.45
2019-05-14T18:44:39.164Z,100672.11
2019-05-14T18:45:16.097Z,100668.89
2019-05-14T18:45:51.990Z,100671.85
2019-05-14T18:46:28.895Z,100671.02
2019-05-14T18:47:04.788Z,100665.62
2019-05-14T18:47:40.805Z,100663.17
2019-05-14T18:48:19.223Z,100663.17
2019-05-14T18:48:54.551Z,100665.33
2019-05-14T18:49:30.571Z,100664.23
2019-05-14T18:50:08.971Z,100665.59
2019-05-14T18:50:44.557Z,100662.08
2019-05-14T18:51:20.477Z,100656.69
2019-05-14T18:51:59.074Z,100659.39